sensor_id;sensor_type;location;lat;lon;timestamp;P1;durP1;ratioP1;P2;durP2;ratioP2
19339;SDS011;9804;52.350;6.684;2024-01-30T00:00:35;18.05;;;12.43;;
19339;SDS011;9804;52.350;6.684;2024-01-30T00:03:00;21.25;;;12.32;;
19339;SDS011;9804;52.350;6.684;2024-01-30T00:05:26;18.40;;;11.48;;
19339;SDS011;9804;52.350;6.684;2024-01-30T00:07:51;18.95;;;11.82;;
19339;SDS011;9804;52.350;6.684;2024-01-30T00:10:17;18.60;;;11.80;;
19339;SDS011;9804;52.350;6.684;2024-01-30T00:12:43;15.80;;;11.32;;
19339;SDS011;9804;52.350;6.684;2024-01-30T00:15:08;19.60;;;10.38;;
19339;SDS011;9804;52.350;6.684;2024-01-30T00:17:35;19.90;;;11.75;;
19339;SDS011;9804;52.350;6.684;2024-01-30T00:20:02;21.98;;;11.95;;
19339;SDS011;9804;52.350;6.684;2024-01-30T00:22:30;16.55;;;10.45;;
19339;SDS011;9804;52.350;6.684;2024-01-30T00:24:58;16.42;;;10.40;;
19339;SDS011;9804;52.350;6.684;2024-01-30T00:27:24;17.10;;;10.82;;
19339;SDS011;9804;52.350;6.684;2024-01-30T00:29:51;17.50;;;11.60;;
19339;SDS011;9804;52.350;6.684;2024-01-30T00:32:16;15.88;;;10.88;;
19339;SDS011;9804;52.350;6.684;2024-01-30T00:34:44;17.60;;;11.85;;
19339;SDS011;9804;52.350;6.684;2024-01-30T00:37:09;17.50;;;11.10;;
19339;SDS011;9804;52.350;6.684;2024-01-30T00:39:35;17.80;;;10.93;;
19339;SDS011;9804;52.350;6.684;2024-01-30T00:42:00;17.48;;;11.02;;
19339;SDS011;9804;52.350;6.684;2024-01-30T00:44:25;17.45;;;11.07;;
19339;SDS011;9804;52.350;6.684;2024-01-30T00:46:51;15.60;;;10.38;;
19339;SDS011;9804;52.350;6.684;2024-01-30T00:49:16;14.45;;;10.50;;
19339;SDS011;9804;52.350;6.684;2024-01-30T00:51:42;13.70;;;10.93;;
19339;SDS011;9804;52.350;6.684;2024-01-30T00:54:07;19.48;;;11.02;;
19339;SDS011;9804;52.350;6.684;2024-01-30T00:56:33;19.48;;;11.13;;
19339;SDS011;9804;52.350;6.684;2024-01-30T00:58:58;14.73;;;10.38;;
19339;SDS011;9804;52.350;6.684;2024-01-30T01:01:24;18.45;;;10.95;;
19339;SDS011;9804;52.350;6.684;2024-01-30T01:03:49;15.27;;;11.27;;
19339;SDS011;9804;52.350;6.684;2024-01-30T01:06:15;19.02;;;11.13;;
19339;SDS011;9804;52.350;6.684;2024-01-30T01:08:41;18.30;;;11.73;;
19339;SDS011;9804;52.350;6.684;2024-01-30T01:11:06;17.88;;;11.13;;
19339;SDS011;9804;52.350;6.684;2024-01-30T01:13:31;17.38;;;11.23;;
19339;SDS011;9804;52.350;6.684;2024-01-30T01:15:57;19.15;;;10.93;;
19339;SDS011;9804;52.350;6.684;2024-01-30T01:18:22;19.90;;;10.55;;
19339;SDS011;9804;52.350;6.684;2024-01-30T01:20:48;15.73;;;11.00;;
19339;SDS011;9804;52.350;6.684;2024-01-30T01:23:14;17.13;;;11.40;;
19339;SDS011;9804;52.350;6.684;2024-01-30T01:25:39;19.77;;;11.98;;
19339;SDS011;9804;52.350;6.684;2024-01-30T01:28:05;18.63;;;11.20;;
19339;SDS011;9804;52.350;6.684;2024-01-30T01:30:30;17.67;;;12.00;;
19339;SDS011;9804;52.350;6.684;2024-01-30T01:32:56;17.15;;;11.25;;
19339;SDS011;9804;52.350;6.684;2024-01-30T01:35:22;17.52;;;11.63;;
19339;SDS011;9804;52.350;6.684;2024-01-30T01:37:50;18.77;;;11.68;;
19339;SDS011;9804;52.350;6.684;2024-01-30T01:40:23;19.33;;;12.23;;
19339;SDS011;9804;52.350;6.684;2024-01-30T01:42:49;18.08;;;11.40;;
19339;SDS011;9804;52.350;6.684;2024-01-30T01:45:17;16.55;;;11.85;;
19339;SDS011;9804;52.350;6.684;2024-01-30T01:47:43;21.27;;;12.32;;
19339;SDS011;9804;52.350;6.684;2024-01-30T01:50:11;18.77;;;11.90;;
19339;SDS011;9804;52.350;6.684;2024-01-30T01:52:43;18.13;;;12.27;;
19339;SDS011;9804;52.350;6.684;2024-01-30T01:55:09;19.75;;;11.63;;
19339;SDS011;9804;52.350;6.684;2024-01-30T01:57:35;22.90;;;12.20;;
19339;SDS011;9804;52.350;6.684;2024-01-30T02:00:01;19.90;;;12.48;;
19339;SDS011;9804;52.350;6.684;2024-01-30T02:02:29;22.63;;;12.10;;
19339;SDS011;9804;52.350;6.684;2024-01-30T02:04:56;18.58;;;11.57;;
19339;SDS011;9804;52.350;6.684;2024-01-30T02:07:23;18.77;;;12.25;;
19339;SDS011;9804;52.350;6.684;2024-01-30T02:09:49;18.40;;;12.52;;
19339;SDS011;9804;52.350;6.684;2024-01-30T02:12:14;19.67;;;12.65;;
19339;SDS011;9804;52.350;6.684;2024-01-30T02:14:46;21.23;;;12.25;;
19339;SDS011;9804;52.350;6.684;2024-01-30T02:17:12;18.15;;;11.73;;
19339;SDS011;9804;52.350;6.684;2024-01-30T02:19:38;22.15;;;13.00;;
19339;SDS011;9804;52.350;6.684;2024-01-30T02:22:04;19.10;;;12.25;;
19339;SDS011;9804;52.350;6.684;2024-01-30T02:24:30;19.98;;;12.40;;
19339;SDS011;9804;52.350;6.684;2024-01-30T02:26:55;20.23;;;12.82;;
19339;SDS011;9804;52.350;6.684;2024-01-30T02:29:21;17.52;;;11.70;;
19339;SDS011;9804;52.350;6.684;2024-01-30T02:31:46;20.38;;;12.52;;
19339;SDS011;9804;52.350;6.684;2024-01-30T02:34:12;21.73;;;12.93;;
19339;SDS011;9804;52.350;6.684;2024-01-30T02:36:37;19.40;;;12.13;;
19339;SDS011;9804;52.350;6.684;2024-01-30T02:39:03;21.00;;;12.68;;
19339;SDS011;9804;52.350;6.684;2024-01-30T02:41:28;22.02;;;12.75;;
19339;SDS011;9804;52.350;6.684;2024-01-30T02:43:54;18.70;;;12.97;;
19339;SDS011;9804;52.350;6.684;2024-01-30T02:46:19;18.97;;;12.87;;
19339;SDS011;9804;52.350;6.684;2024-01-30T02:48:45;23.93;;;13.10;;
19339;SDS011;9804;52.350;6.684;2024-01-30T02:51:10;22.55;;;13.60;;
19339;SDS011;9804;52.350;6.684;2024-01-30T02:53:36;19.33;;;12.75;;
19339;SDS011;9804;52.350;6.684;2024-01-30T02:56:04;22.13;;;14.02;;
19339;SDS011;9804;52.350;6.684;2024-01-30T02:58:30;17.00;;;12.70;;
19339;SDS011;9804;52.350;6.684;2024-01-30T03:00:56;19.15;;;13.10;;
19339;SDS011;9804;52.350;6.684;2024-01-30T03:03:21;23.27;;;13.60;;
19339;SDS011;9804;52.350;6.684;2024-01-30T03:05:47;20.92;;;13.85;;
19339;SDS011;9804;52.350;6.684;2024-01-30T03:08:13;19.70;;;13.27;;
19339;SDS011;9804;52.350;6.684;2024-01-30T03:10:38;22.13;;;13.80;;
19339;SDS011;9804;52.350;6.684;2024-01-30T03:13:03;25.77;;;14.10;;
19339;SDS011;9804;52.350;6.684;2024-01-30T03:15:29;23.23;;;14.73;;
19339;SDS011;9804;52.350;6.684;2024-01-30T03:17:54;21.88;;;14.25;;
19339;SDS011;9804;52.350;6.684;2024-01-30T03:20:20;23.67;;;14.43;;
19339;SDS011;9804;52.350;6.684;2024-01-30T03:22:45;22.10;;;14.15;;
19339;SDS011;9804;52.350;6.684;2024-01-30T03:25:12;27.30;;;14.83;;
19339;SDS011;9804;52.350;6.684;2024-01-30T03:27:37;22.87;;;14.87;;
19339;SDS011;9804;52.350;6.684;2024-01-30T03:30:03;20.58;;;13.77;;
19339;SDS011;9804;52.350;6.684;2024-01-30T03:32:28;25.85;;;14.70;;
19339;SDS011;9804;52.350;6.684;2024-01-30T03:34:54;23.45;;;14.10;;
19339;SDS011;9804;52.350;6.684;2024-01-30T03:37:19;23.40;;;14.07;;
19339;SDS011;9804;52.350;6.684;2024-01-30T03:39:45;22.13;;;13.95;;
19339;SDS011;9804;52.350;6.684;2024-01-30T03:42:10;26.25;;;14.15;;
19339;SDS011;9804;52.350;6.684;2024-01-30T03:44:35;24.15;;;14.43;;
19339;SDS011;9804;52.350;6.684;2024-01-30T03:47:01;19.25;;;13.13;;
19339;SDS011;9804;52.350;6.684;2024-01-30T03:49:26;23.67;;;13.63;;
19339;SDS011;9804;52.350;6.684;2024-01-30T03:51:52;19.33;;;12.75;;
19339;SDS011;9804;52.350;6.684;2024-01-30T03:54:17;21.00;;;12.73;;
19339;SDS011;9804;52.350;6.684;2024-01-30T03:56:42;25.60;;;13.82;;
19339;SDS011;9804;52.350;6.684;2024-01-30T03:59:08;23.48;;;12.63;;
19339;SDS011;9804;52.350;6.684;2024-01-30T04:01:33;22.60;;;13.67;;
19339;SDS011;9804;52.350;6.684;2024-01-30T04:03:59;20.70;;;13.82;;
19339;SDS011;9804;52.350;6.684;2024-01-30T04:06:24;24.30;;;13.70;;
19339;SDS011;9804;52.350;6.684;2024-01-30T04:08:50;22.98;;;13.20;;
19339;SDS011;9804;52.350;6.684;2024-01-30T04:11:17;24.42;;;14.65;;
19339;SDS011;9804;52.350;6.684;2024-01-30T04:13:43;28.95;;;15.73;;
19339;SDS011;9804;52.350;6.684;2024-01-30T04:16:18;27.57;;;13.87;;
19339;SDS011;9804;52.350;6.684;2024-01-30T04:18:45;22.00;;;14.17;;
19339;SDS011;9804;52.350;6.684;2024-01-30T04:21:11;24.55;;;13.93;;
19339;SDS011;9804;52.350;6.684;2024-01-30T04:23:36;21.67;;;14.03;;
19339;SDS011;9804;52.350;6.684;2024-01-30T04:26:02;23.15;;;14.00;;
19339;SDS011;9804;52.350;6.684;2024-01-30T04:28:28;24.40;;;14.05;;
19339;SDS011;9804;52.350;6.684;2024-01-30T04:30:53;25.63;;;14.67;;
19339;SDS011;9804;52.350;6.684;2024-01-30T04:33:19;28.65;;;14.07;;
19339;SDS011;9804;52.350;6.684;2024-01-30T04:35:44;25.73;;;14.77;;
19339;SDS011;9804;52.350;6.684;2024-01-30T04:38:10;24.27;;;14.77;;
19339;SDS011;9804;52.350;6.684;2024-01-30T04:40:35;25.38;;;14.25;;
19339;SDS011;9804;52.350;6.684;2024-01-30T04:43:01;22.30;;;14.27;;
19339;SDS011;9804;52.350;6.684;2024-01-30T04:45:26;25.93;;;14.90;;
19339;SDS011;9804;52.350;6.684;2024-01-30T04:47:51;22.27;;;14.93;;
19339;SDS011;9804;52.350;6.684;2024-01-30T04:50:17;24.75;;;14.77;;
19339;SDS011;9804;52.350;6.684;2024-01-30T04:52:43;25.95;;;15.02;;
19339;SDS011;9804;52.350;6.684;2024-01-30T04:55:09;25.67;;;15.85;;
19339;SDS011;9804;52.350;6.684;2024-01-30T04:57:34;28.23;;;15.27;;
19339;SDS011;9804;52.350;6.684;2024-01-30T04:59:59;23.45;;;15.68;;
19339;SDS011;9804;52.350;6.684;2024-01-30T05:02:25;21.15;;;14.25;;
19339;SDS011;9804;52.350;6.684;2024-01-30T05:04:50;22.25;;;14.73;;
19339;SDS011;9804;52.350;6.684;2024-01-30T05:07:16;24.92;;;14.10;;
19339;SDS011;9804;52.350;6.684;2024-01-30T05:09:41;22.77;;;14.90;;
19339;SDS011;9804;52.350;6.684;2024-01-30T05:12:07;26.10;;;15.27;;
19339;SDS011;9804;52.350;6.684;2024-01-30T05:14:32;25.00;;;14.73;;
19339;SDS011;9804;52.350;6.684;2024-01-30T05:16:59;23.33;;;14.60;;
19339;SDS011;9804;52.350;6.684;2024-01-30T05:19:24;24.52;;;14.48;;
19339;SDS011;9804;52.350;6.684;2024-01-30T05:21:50;24.47;;;14.40;;
19339;SDS011;9804;52.350;6.684;2024-01-30T05:24:15;22.73;;;14.60;;
19339;SDS011;9804;52.350;6.684;2024-01-30T05:26:41;21.80;;;14.63;;
19339;SDS011;9804;52.350;6.684;2024-01-30T05:29:06;21.58;;;15.02;;
19339;SDS011;9804;52.350;6.684;2024-01-30T05:31:32;22.42;;;14.15;;
19339;SDS011;9804;52.350;6.684;2024-01-30T05:33:59;23.13;;;14.52;;
19339;SDS011;9804;52.350;6.684;2024-01-30T05:36:25;20.92;;;13.85;;
19339;SDS011;9804;52.350;6.684;2024-01-30T05:38:50;20.60;;;13.75;;
19339;SDS011;9804;52.350;6.684;2024-01-30T05:41:16;20.33;;;13.32;;
19339;SDS011;9804;52.350;6.684;2024-01-30T05:43:41;17.33;;;12.77;;
19339;SDS011;9804;52.350;6.684;2024-01-30T05:46:07;19.80;;;12.70;;
19339;SDS011;9804;52.350;6.684;2024-01-30T05:48:32;22.05;;;12.90;;
19339;SDS011;9804;52.350;6.684;2024-01-30T05:51:00;19.77;;;12.38;;
19339;SDS011;9804;52.350;6.684;2024-01-30T05:53:25;22.70;;;13.55;;
19339;SDS011;9804;52.350;6.684;2024-01-30T05:55:51;18.48;;;13.07;;
19339;SDS011;9804;52.350;6.684;2024-01-30T05:58:16;18.50;;;13.00;;
19339;SDS011;9804;52.350;6.684;2024-01-30T06:00:42;20.45;;;13.63;;
19339;SDS011;9804;52.350;6.684;2024-01-30T06:03:07;18.55;;;12.57;;
19339;SDS011;9804;52.350;6.684;2024-01-30T06:05:33;20.27;;;12.80;;
19339;SDS011;9804;52.350;6.684;2024-01-30T06:07:58;18.92;;;12.13;;
19339;SDS011;9804;52.350;6.684;2024-01-30T06:10:23;20.40;;;12.88;;
19339;SDS011;9804;52.350;6.684;2024-01-30T06:12:49;16.92;;;12.40;;
19339;SDS011;9804;52.350;6.684;2024-01-30T06:15:14;21.00;;;12.43;;
19339;SDS011;9804;52.350;6.684;2024-01-30T06:17:40;19.90;;;12.35;;
19339;SDS011;9804;52.350;6.684;2024-01-30T06:20:05;18.05;;;12.05;;
19339;SDS011;9804;52.350;6.684;2024-01-30T06:22:31;19.40;;;11.77;;
19339;SDS011;9804;52.350;6.684;2024-01-30T06:24:57;19.25;;;13.00;;
19339;SDS011;9804;52.350;6.684;2024-01-30T06:27:22;18.17;;;12.05;;
19339;SDS011;9804;52.350;6.684;2024-01-30T06:29:47;20.30;;;12.10;;
19339;SDS011;9804;52.350;6.684;2024-01-30T06:32:13;16.38;;;11.55;;
19339;SDS011;9804;52.350;6.684;2024-01-30T06:34:38;15.45;;;10.88;;
19339;SDS011;9804;52.350;6.684;2024-01-30T06:37:05;16.38;;;11.98;;
19339;SDS011;9804;52.350;6.684;2024-01-30T06:39:31;19.42;;;11.38;;
19339;SDS011;9804;52.350;6.684;2024-01-30T06:41:56;18.85;;;11.73;;
19339;SDS011;9804;52.350;6.684;2024-01-30T06:44:22;15.18;;;10.50;;
19339;SDS011;9804;52.350;6.684;2024-01-30T06:46:47;16.65;;;12.10;;
19339;SDS011;9804;52.350;6.684;2024-01-30T06:49:12;15.60;;;10.23;;
19339;SDS011;9804;52.350;6.684;2024-01-30T06:51:38;15.13;;;10.27;;
19339;SDS011;9804;52.350;6.684;2024-01-30T06:54:03;18.75;;;10.63;;
19339;SDS011;9804;52.350;6.684;2024-01-30T06:56:29;15.95;;;10.52;;
19339;SDS011;9804;52.350;6.684;2024-01-30T06:58:54;14.93;;;10.65;;
19339;SDS011;9804;52.350;6.684;2024-01-30T07:01:20;15.00;;;10.20;;
19339;SDS011;9804;52.350;6.684;2024-01-30T07:03:46;19.15;;;10.77;;
19339;SDS011;9804;52.350;6.684;2024-01-30T07:06:11;14.98;;;10.07;;
19339;SDS011;9804;52.350;6.684;2024-01-30T07:08:37;12.73;;;9.50;;
19339;SDS011;9804;52.350;6.684;2024-01-30T07:11:06;13.77;;;10.80;;
19339;SDS011;9804;52.350;6.684;2024-01-30T07:13:32;15.32;;;9.93;;
19339;SDS011;9804;52.350;6.684;2024-01-30T07:15:57;15.75;;;10.15;;
19339;SDS011;9804;52.350;6.684;2024-01-30T07:18:23;16.88;;;9.60;;
19339;SDS011;9804;52.350;6.684;2024-01-30T07:20:49;14.40;;;9.88;;
19339;SDS011;9804;52.350;6.684;2024-01-30T07:23:15;15.43;;;9.75;;
19339;SDS011;9804;52.350;6.684;2024-01-30T07:25:45;12.93;;;9.77;;
19339;SDS011;9804;52.350;6.684;2024-01-30T07:28:13;13.05;;;9.57;;
19339;SDS011;9804;52.350;6.684;2024-01-30T07:30:41;12.70;;;9.82;;
19339;SDS011;9804;52.350;6.684;2024-01-30T07:33:07;16.10;;;9.93;;
19339;SDS011;9804;52.350;6.684;2024-01-30T07:35:33;19.25;;;10.32;;
19339;SDS011;9804;52.350;6.684;2024-01-30T07:37:59;16.10;;;9.77;;
19339;SDS011;9804;52.350;6.684;2024-01-30T07:40:24;14.93;;;10.68;;
19339;SDS011;9804;52.350;6.684;2024-01-30T07:42:50;17.95;;;9.60;;
19339;SDS011;9804;52.350;6.684;2024-01-30T07:45:15;14.73;;;9.80;;
19339;SDS011;9804;52.350;6.684;2024-01-30T07:47:41;18.02;;;10.07;;
19339;SDS011;9804;52.350;6.684;2024-01-30T07:50:07;15.52;;;9.57;;
19339;SDS011;9804;52.350;6.684;2024-01-30T07:52:34;15.27;;;9.05;;
19339;SDS011;9804;52.350;6.684;2024-01-30T07:54:59;15.35;;;9.77;;
19339;SDS011;9804;52.350;6.684;2024-01-30T07:57:25;16.38;;;10.13;;
19339;SDS011;9804;52.350;6.684;2024-01-30T07:59:50;12.35;;;9.13;;
19339;SDS011;9804;52.350;6.684;2024-01-30T08:02:16;16.98;;;9.70;;
19339;SDS011;9804;52.350;6.684;2024-01-30T08:04:41;15.90;;;9.25;;
19339;SDS011;9804;52.350;6.684;2024-01-30T08:07:06;12.80;;;9.27;;
19339;SDS011;9804;52.350;6.684;2024-01-30T08:09:32;11.88;;;9.00;;
19339;SDS011;9804;52.350;6.684;2024-01-30T08:11:57;15.50;;;9.35;;
19339;SDS011;9804;52.350;6.684;2024-01-30T08:14:23;13.40;;;9.25;;
19339;SDS011;9804;52.350;6.684;2024-01-30T08:16:48;15.63;;;9.35;;
19339;SDS011;9804;52.350;6.684;2024-01-30T08:19:14;14.05;;;9.07;;
19339;SDS011;9804;52.350;6.684;2024-01-30T08:21:40;14.63;;;9.07;;
19339;SDS011;9804;52.350;6.684;2024-01-30T08:24:06;12.27;;;8.52;;
19339;SDS011;9804;52.350;6.684;2024-01-30T08:26:32;11.45;;;8.52;;
19339;SDS011;9804;52.350;6.684;2024-01-30T08:28:58;13.43;;;8.90;;
19339;SDS011;9804;52.350;6.684;2024-01-30T08:31:23;13.00;;;8.82;;
19339;SDS011;9804;52.350;6.684;2024-01-30T08:33:49;15.00;;;9.32;;
19339;SDS011;9804;52.350;6.684;2024-01-30T08:36:15;14.02;;;8.68;;
19339;SDS011;9804;52.350;6.684;2024-01-30T08:38:41;15.18;;;9.10;;
19339;SDS011;9804;52.350;6.684;2024-01-30T08:41:07;17.95;;;9.75;;
19339;SDS011;9804;52.350;6.684;2024-01-30T08:43:33;13.38;;;8.48;;
19339;SDS011;9804;52.350;6.684;2024-01-30T08:45:59;15.00;;;9.00;;
19339;SDS011;9804;52.350;6.684;2024-01-30T08:48:25;14.00;;;8.43;;
19339;SDS011;9804;52.350;6.684;2024-01-30T08:50:50;13.77;;;8.70;;
19339;SDS011;9804;52.350;6.684;2024-01-30T08:53:16;13.93;;;9.00;;
19339;SDS011;9804;52.350;6.684;2024-01-30T08:55:41;13.07;;;8.95;;
19339;SDS011;9804;52.350;6.684;2024-01-30T08:58:07;13.68;;;8.23;;
19339;SDS011;9804;52.350;6.684;2024-01-30T09:00:33;14.10;;;8.38;;
19339;SDS011;9804;52.350;6.684;2024-01-30T09:02:58;12.23;;;8.25;;
19339;SDS011;9804;52.350;6.684;2024-01-30T09:05:23;15.63;;;8.73;;
19339;SDS011;9804;52.350;6.684;2024-01-30T09:07:49;12.23;;;8.65;;
19339;SDS011;9804;52.350;6.684;2024-01-30T09:10:14;14.77;;;8.77;;
19339;SDS011;9804;52.350;6.684;2024-01-30T09:12:40;12.48;;;8.55;;
19339;SDS011;9804;52.350;6.684;2024-01-30T09:15:06;12.20;;;8.35;;
19339;SDS011;9804;52.350;6.684;2024-01-30T09:17:32;12.25;;;8.38;;
19339;SDS011;9804;52.350;6.684;2024-01-30T09:19:58;14.73;;;8.73;;
19339;SDS011;9804;52.350;6.684;2024-01-30T09:22:24;14.18;;;7.90;;
19339;SDS011;9804;52.350;6.684;2024-01-30T09:24:49;12.18;;;8.50;;
19339;SDS011;9804;52.350;6.684;2024-01-30T09:27:15;15.93;;;8.63;;
19339;SDS011;9804;52.350;6.684;2024-01-30T09:29:40;13.02;;;8.85;;
19339;SDS011;9804;52.350;6.684;2024-01-30T09:32:06;10.48;;;7.97;;
19339;SDS011;9804;52.350;6.684;2024-01-30T09:34:31;11.05;;;8.40;;
19339;SDS011;9804;52.350;6.684;2024-01-30T09:36:58;12.80;;;7.97;;
19339;SDS011;9804;52.350;6.684;2024-01-30T09:39:24;17.35;;;8.40;;
19339;SDS011;9804;52.350;6.684;2024-01-30T09:42:04;18.85;;;8.23;;
19339;SDS011;9804;52.350;6.684;2024-01-30T09:44:34;13.57;;;7.93;;
19339;SDS011;9804;52.350;6.684;2024-01-30T09:47:01;11.23;;;8.38;;
19339;SDS011;9804;52.350;6.684;2024-01-30T09:49:30;13.88;;;8.40;;
19339;SDS011;9804;52.350;6.684;2024-01-30T09:51:58;12.38;;;7.78;;
19339;SDS011;9804;52.350;6.684;2024-01-30T09:54:23;14.15;;;8.10;;
19339;SDS011;9804;52.350;6.684;2024-01-30T09:56:49;15.70;;;7.80;;
19339;SDS011;9804;52.350;6.684;2024-01-30T09:59:14;12.75;;;7.85;;
19339;SDS011;9804;52.350;6.684;2024-01-30T10:01:40;15.27;;;8.10;;
19339;SDS011;9804;52.350;6.684;2024-01-30T10:04:07;9.90;;;7.65;;
19339;SDS011;9804;52.350;6.684;2024-01-30T10:06:32;11.32;;;8.10;;
19339;SDS011;9804;52.350;6.684;2024-01-30T10:08:58;14.75;;;7.88;;
19339;SDS011;9804;52.350;6.684;2024-01-30T10:11:23;14.23;;;7.43;;
19339;SDS011;9804;52.350;6.684;2024-01-30T10:13:48;13.50;;;8.15;;
19339;SDS011;9804;52.350;6.684;2024-01-30T10:16:14;12.43;;;8.02;;
19339;SDS011;9804;52.350;6.684;2024-01-30T10:18:41;10.80;;;7.70;;
19339;SDS011;9804;52.350;6.684;2024-01-30T10:21:08;10.20;;;8.02;;
19339;SDS011;9804;52.350;6.684;2024-01-30T10:23:34;14.02;;;7.97;;
19339;SDS011;9804;52.350;6.684;2024-01-30T10:25:59;12.43;;;7.53;;
19339;SDS011;9804;52.350;6.684;2024-01-30T10:28:27;12.52;;;7.97;;
19339;SDS011;9804;52.350;6.684;2024-01-30T10:30:58;13.90;;;7.45;;
19339;SDS011;9804;52.350;6.684;2024-01-30T10:33:27;12.00;;;8.00;;
19339;SDS011;9804;52.350;6.684;2024-01-30T10:35:54;12.02;;;8.30;;
19339;SDS011;9804;52.350;6.684;2024-01-30T10:38:25;11.70;;;7.07;;
19339;SDS011;9804;52.350;6.684;2024-01-30T10:40:59;13.38;;;8.05;;
19339;SDS011;9804;52.350;6.684;2024-01-30T10:43:33;12.07;;;8.10;;
19339;SDS011;9804;52.350;6.684;2024-01-30T10:46:11;15.60;;;8.25;;
19339;SDS011;9804;52.350;6.684;2024-01-30T10:48:41;10.10;;;7.50;;
19339;SDS011;9804;52.350;6.684;2024-01-30T10:51:09;13.05;;;7.78;;
19339;SDS011;9804;52.350;6.684;2024-01-30T10:53:36;12.30;;;7.63;;
19339;SDS011;9804;52.350;6.684;2024-01-30T10:56:02;13.10;;;7.80;;
19339;SDS011;9804;52.350;6.684;2024-01-30T10:58:29;14.32;;;8.23;;
19339;SDS011;9804;52.350;6.684;2024-01-30T11:00:55;13.13;;;8.20;;
19339;SDS011;9804;52.350;6.684;2024-01-30T11:03:21;18.42;;;8.38;;
19339;SDS011;9804;52.350;6.684;2024-01-30T11:05:50;12.57;;;7.72;;
19339;SDS011;9804;52.350;6.684;2024-01-30T11:08:22;17.13;;;7.72;;
19339;SDS011;9804;52.350;6.684;2024-01-30T11:10:49;12.10;;;7.32;;
19339;SDS011;9804;52.350;6.684;2024-01-30T11:13:19;12.82;;;7.35;;
19339;SDS011;9804;52.350;6.684;2024-01-30T11:15:47;12.18;;;8.95;;
19339;SDS011;9804;52.350;6.684;2024-01-30T11:18:22;13.63;;;8.35;;
19339;SDS011;9804;52.350;6.684;2024-01-30T11:20:51;13.30;;;7.95;;
19339;SDS011;9804;52.350;6.684;2024-01-30T11:23:16;15.68;;;7.78;;
19339;SDS011;9804;52.350;6.684;2024-01-30T11:25:43;11.85;;;8.18;;
19339;SDS011;9804;52.350;6.684;2024-01-30T11:28:16;14.13;;;8.38;;
19339;SDS011;9804;52.350;6.684;2024-01-30T11:30:42;14.93;;;7.80;;
19339;SDS011;9804;52.350;6.684;2024-01-30T11:33:08;14.93;;;7.90;;
19339;SDS011;9804;52.350;6.684;2024-01-30T11:35:45;15.40;;;8.43;;
19339;SDS011;9804;52.350;6.684;2024-01-30T11:38:13;10.70;;;7.65;;
19339;SDS011;9804;52.350;6.684;2024-01-30T11:40:39;10.93;;;7.50;;
19339;SDS011;9804;52.350;6.684;2024-01-30T11:43:06;12.57;;;7.65;;
19339;SDS011;9804;52.350;6.684;2024-01-30T11:45:34;11.70;;;7.57;;
19339;SDS011;9804;52.350;6.684;2024-01-30T11:48:00;9.98;;;6.57;;
19339;SDS011;9804;52.350;6.684;2024-01-30T11:50:28;12.40;;;7.88;;
19339;SDS011;9804;52.350;6.684;2024-01-30T11:53:00;14.88;;;7.20;;
19339;SDS011;9804;52.350;6.684;2024-01-30T11:55:26;14.85;;;7.40;;
19339;SDS011;9804;52.350;6.684;2024-01-30T11:57:54;11.90;;;6.20;;
19339;SDS011;9804;52.350;6.684;2024-01-30T12:00:20;12.20;;;6.93;;
19339;SDS011;9804;52.350;6.684;2024-01-30T12:02:49;11.40;;;6.88;;
19339;SDS011;9804;52.350;6.684;2024-01-30T12:05:16;10.77;;;7.45;;
19339;SDS011;9804;52.350;6.684;2024-01-30T12:07:44;13.57;;;7.13;;
19339;SDS011;9804;52.350;6.684;2024-01-30T12:10:10;10.10;;;6.88;;
19339;SDS011;9804;52.350;6.684;2024-01-30T12:12:36;13.45;;;7.60;;
19339;SDS011;9804;52.350;6.684;2024-01-30T12:15:02;11.95;;;6.43;;
19339;SDS011;9804;52.350;6.684;2024-01-30T12:17:31;12.23;;;7.07;;
19339;SDS011;9804;52.350;6.684;2024-01-30T12:25:08;13.07;;;7.28;;
19339;SDS011;9804;52.350;6.684;2024-01-30T12:27:34;12.27;;;7.50;;
19339;SDS011;9804;52.350;6.684;2024-01-30T12:30:00;12.82;;;7.95;;
19339;SDS011;9804;52.350;6.684;2024-01-30T12:32:25;10.80;;;6.95;;
19339;SDS011;9804;52.350;6.684;2024-01-30T12:34:54;10.40;;;7.25;;
19339;SDS011;9804;52.350;6.684;2024-01-30T12:37:20;14.50;;;7.10;;
19339;SDS011;9804;52.350;6.684;2024-01-30T12:39:48;11.88;;;7.07;;
19339;SDS011;9804;52.350;6.684;2024-01-30T12:42:13;14.15;;;6.78;;
19339;SDS011;9804;52.350;6.684;2024-01-30T12:44:39;10.38;;;7.03;;
19339;SDS011;9804;52.350;6.684;2024-01-30T12:47:05;12.10;;;7.78;;
19339;SDS011;9804;52.350;6.684;2024-01-30T12:49:31;9.80;;;6.90;;
19339;SDS011;9804;52.350;6.684;2024-01-30T12:51:56;11.73;;;7.80;;
19339;SDS011;9804;52.350;6.684;2024-01-30T12:54:23;11.50;;;7.85;;
19339;SDS011;9804;52.350;6.684;2024-01-30T12:56:48;13.98;;;8.02;;
19339;SDS011;9804;52.350;6.684;2024-01-30T12:59:14;10.98;;;7.05;;
19339;SDS011;9804;52.350;6.684;2024-01-30T13:01:39;17.88;;;7.88;;
19339;SDS011;9804;52.350;6.684;2024-01-30T13:04:05;14.27;;;7.90;;
19339;SDS011;9804;52.350;6.684;2024-01-30T13:06:30;13.32;;;8.15;;
19339;SDS011;9804;52.350;6.684;2024-01-30T13:08:55;17.95;;;8.25;;
19339;SDS011;9804;52.350;6.684;2024-01-30T13:11:21;14.80;;;7.88;;
19339;SDS011;9804;52.350;6.684;2024-01-30T13:13:46;13.45;;;8.63;;
19339;SDS011;9804;52.350;6.684;2024-01-30T13:16:12;12.80;;;7.43;;
19339;SDS011;9804;52.350;6.684;2024-01-30T13:18:37;14.25;;;7.30;;
19339;SDS011;9804;52.350;6.684;2024-01-30T13:21:03;12.93;;;6.55;;
19339;SDS011;9804;52.350;6.684;2024-01-30T13:23:28;11.00;;;5.97;;
19339;SDS011;9804;52.350;6.684;2024-01-30T13:25:54;9.75;;;5.10;;
19339;SDS011;9804;52.350;6.684;2024-01-30T13:28:23;11.52;;;4.43;;
19339;SDS011;9804;52.350;6.684;2024-01-30T13:30:48;10.63;;;5.03;;
19339;SDS011;9804;52.350;6.684;2024-01-30T13:33:14;9.40;;;5.32;;
19339;SDS011;9804;52.350;6.684;2024-01-30T13:35:39;8.60;;;4.13;;
19339;SDS011;9804;52.350;6.684;2024-01-30T13:38:05;6.93;;;4.03;;
19339;SDS011;9804;52.350;6.684;2024-01-30T13:40:30;7.40;;;3.95;;
19339;SDS011;9804;52.350;6.684;2024-01-30T13:42:56;4.43;;;3.25;;
19339;SDS011;9804;52.350;6.684;2024-01-30T13:45:21;6.68;;;3.75;;
19339;SDS011;9804;52.350;6.684;2024-01-30T13:47:46;10.77;;;3.90;;
19339;SDS011;9804;52.350;6.684;2024-01-30T13:50:12;7.50;;;3.25;;
19339;SDS011;9804;52.350;6.684;2024-01-30T13:52:40;5.95;;;3.05;;
19339;SDS011;9804;52.350;6.684;2024-01-30T13:55:06;8.90;;;2.97;;
19339;SDS011;9804;52.350;6.684;2024-01-30T13:57:31;7.30;;;2.78;;
19339;SDS011;9804;52.350;6.684;2024-01-30T14:00:00;4.85;;;2.03;;
19339;SDS011;9804;52.350;6.684;2024-01-30T14:02:26;8.18;;;2.65;;
19339;SDS011;9804;52.350;6.684;2024-01-30T14:04:51;6.70;;;2.67;;
19339;SDS011;9804;52.350;6.684;2024-01-30T14:07:17;6.28;;;2.00;;
19339;SDS011;9804;52.350;6.684;2024-01-30T14:09:43;3.17;;;2.17;;
19339;SDS011;9804;52.350;6.684;2024-01-30T14:12:09;3.20;;;2.10;;
19339;SDS011;9804;52.350;6.684;2024-01-30T14:14:35;6.50;;;2.28;;
19339;SDS011;9804;52.350;6.684;2024-01-30T14:17:00;8.50;;;2.70;;
19339;SDS011;9804;52.350;6.684;2024-01-30T14:19:26;8.32;;;2.38;;
19339;SDS011;9804;52.350;6.684;2024-01-30T14:21:52;4.22;;;1.67;;
19339;SDS011;9804;52.350;6.684;2024-01-30T14:24:17;4.32;;;1.90;;
19339;SDS011;9804;52.350;6.684;2024-01-30T14:26:42;4.03;;;2.42;;
19339;SDS011;9804;52.350;6.684;2024-01-30T14:29:09;6.65;;;1.90;;
19339;SDS011;9804;52.350;6.684;2024-01-30T14:31:34;5.13;;;2.15;;
19339;SDS011;9804;52.350;6.684;2024-01-30T14:34:00;5.07;;;2.20;;
19339;SDS011;9804;52.350;6.684;2024-01-30T14:36:26;3.63;;;2.70;;
19339;SDS011;9804;52.350;6.684;2024-01-30T14:38:53;7.05;;;3.17;;
19339;SDS011;9804;52.350;6.684;2024-01-30T14:41:19;7.38;;;3.38;;